createdAt,value
2023-04-16T00:01:40.703Z,6.57
2023-04-16T00:04:08.252Z,6.60
2023-04-16T00:06:35.025Z,6.61
2023-04-16T00:09:01.754Z,6.62
2023-04-16T00:11:29.706Z,6.63
2023-04-16T00:13:56.294Z,6.64
2023-04-16T00:16:24.597Z,6.64
2023-04-16T00:18:51.308Z,6.63
2023-04-16T00:21:17.869Z,6.63
2023-04-16T00:23:44.376Z,6.62
2023-04-16T00:26:10.985Z,6.61
2023-04-16T00:28:38.878Z,6.58
2023-04-16T00:31:05.407Z,6.58
2023-04-16T00:33:35.102Z,6.56
2023-04-16T00:36:01.623Z,6.58
2023-04-16T00:38:28.221Z,6.58
2023-04-16T00:40:54.780Z,6.61
2023-04-16T00:43:23.296Z,6.63
2023-04-16T00:45:52.092Z,6.61
2023-04-16T00:48:20.719Z,6.66
2023-04-16T00:50:48.261Z,6.61
2023-04-16T00:53:14.939Z,6.62
2023-04-16T00:55:41.526Z,6.62
2023-04-16T00:58:08.162Z,6.65
2023-04-16T01:00:34.709Z,6.62
2023-04-16T01:03:05.353Z,6.63
2023-04-16T01:05:32.005Z,6.60
2023-04-16T01:08:01.757Z,6.57
2023-04-16T01:10:28.305Z,6.57
2023-04-16T01:12:54.973Z,6.56
2023-04-16T01:15:21.472Z,6.55
2023-04-16T01:17:48.367Z,6.56
2023-04-16T01:20:16.287Z,6.54
2023-04-16T01:22:44.830Z,6.51
2023-04-16T01:25:14.679Z,6.53
2023-04-16T01:27:41.467Z,6.55
2023-04-16T01:30:08.704Z,6.56
2023-04-16T01:32:35.797Z,6.54
2023-04-16T01:35:05.468Z,6.58
2023-04-16T01:37:32.215Z,6.54
2023-04-16T01:40:00.155Z,6.53
2023-04-16T01:42:26.711Z,6.50
2023-04-16T01:44:53.245Z,6.48
2023-04-16T01:47:20.015Z,6.48
2023-04-16T01:49:46.628Z,6.49
2023-04-16T01:52:13.413Z,6.47
2023-04-16T01:54:39.982Z,6.50
2023-04-16T01:57:07.898Z,6.50
2023-04-16T01:59:34.611Z,6.51
2023-04-16T02:02:02.232Z,6.54
2023-04-16T02:04:28.978Z,6.59
2023-04-16T02:06:55.478Z,6.58
2023-04-16T02:09:22.115Z,6.56
2023-04-16T02:11:48.597Z,6.60
2023-04-16T02:14:16.476Z,6.58
2023-04-16T02:16:43.067Z,6.54
2023-04-16T02:19:09.913Z,6.55
2023-04-16T02:21:36.517Z,6.55
2023-04-16T02:24:03.530Z,6.55
2023-04-16T02:26:30.116Z,6.56
2023-04-16T02:28:56.704Z,6.57
2023-04-16T02:31:24.675Z,6.55
2023-04-16T02:33:51.365Z,6.55
2023-04-16T02:36:17.847Z,6.53
2023-04-16T02:38:44.496Z,6.50
2023-04-16T02:41:11.168Z,6.48
2023-04-16T02:43:38.151Z,6.49
2023-04-16T02:46:04.778Z,6.47
2023-04-16T02:48:33.086Z,6.46
2023-04-16T02:50:59.813Z,6.45
2023-04-16T02:53:26.314Z,6.44
2023-04-16T02:55:53.956Z,6.40
2023-04-16T02:58:21.344Z,6.42
2023-04-16T03:00:48.452Z,6.40
2023-04-16T03:03:15.141Z,6.45
2023-04-16T03:05:43.241Z,6.43
2023-04-16T03:08:09.823Z,6.42
2023-04-16T03:10:36.698Z,6.40
2023-04-16T03:13:03.799Z,6.39
2023-04-16T03:15:31.110Z,6.38
2023-04-16T03:17:57.796Z,6.35
2023-04-16T03:20:24.526Z,6.33
2023-04-16T03:22:52.608Z,6.34
2023-04-16T03:25:19.310Z,6.33
2023-04-16T03:27:45.868Z,6.34
2023-04-16T03:30:13.248Z,6.34
2023-04-16T03:32:40.579Z,6.33
2023-04-16T03:35:08.281Z,6.33
2023-04-16T03:37:35.229Z,6.32
2023-04-16T03:40:03.211Z,6.36
2023-04-16T03:42:29.748Z,6.34
2023-04-16T03:44:56.346Z,6.32
2023-04-16T03:47:23.218Z,6.34
2023-04-16T03:49:50.156Z,6.33
2023-04-16T03:52:16.718Z,6.34
2023-04-16T03:54:43.346Z,6.36
2023-04-16T03:57:11.259Z,6.33
2023-04-16T03:59:37.755Z,6.34
2023-04-16T04:02:04.521Z,6.40
2023-04-16T04:04:31.241Z,6.36
2023-04-16T04:06:58.107Z,6.36
2023-04-16T04:09:24.628Z,6.33
2023-04-16T04:11:51.157Z,6.37
2023-04-16T04:14:19.008Z,6.37
2023-04-16T04:16:45.798Z,6.37
2023-04-16T04:19:12.581Z,6.38
2023-04-16T04:21:39.194Z,6.38
2023-04-16T04:24:05.802Z,6.37
2023-04-16T04:26:32.409Z,6.40
2023-04-16T04:28:59.198Z,6.37
2023-04-16T04:31:27.212Z,6.36
2023-04-16T04:33:53.950Z,6.34
2023-04-16T04:36:20.467Z,6.38
2023-04-16T04:38:47.028Z,6.35
2023-04-16T04:41:13.612Z,6.34
2023-04-16T04:43:40.132Z,6.35
2023-04-16T04:46:06.730Z,6.35
2023-04-16T04:48:34.634Z,6.36
2023-04-16T04:51:02.443Z,6.37
2023-04-16T04:53:30.778Z,6.36
2023-04-16T04:56:01.733Z,6.36
2023-04-16T04:58:35.650Z,6.40
2023-04-16T05:01:02.332Z,6.40
2023-04-16T05:03:29.135Z,6.44
2023-04-16T05:05:57.058Z,6.43
2023-04-16T05:08:23.660Z,6.42
2023-04-16T05:10:50.168Z,6.43
2023-04-16T05:13:16.734Z,6.46
2023-04-16T05:15:43.246Z,6.46
2023-04-16T05:18:09.738Z,6.45
2023-04-16T05:20:36.318Z,6.45
2023-04-16T05:23:04.206Z,6.48
2023-04-16T05:25:30.776Z,6.49
2023-04-16T05:27:57.290Z,6.49
2023-04-16T05:30:23.852Z,6.48
2023-04-16T05:32:50.360Z,6.47
2023-04-16T05:35:17.624Z,6.47
2023-04-16T05:37:44.347Z,6.46
2023-04-16T05:40:14.164Z,6.48
2023-04-16T05:42:40.771Z,6.50
2023-04-16T05:45:08.502Z,6.49
2023-04-16T05:47:35.099Z,6.51
2023-04-16T05:50:01.773Z,6.51
2023-04-16T05:52:28.474Z,6.53
2023-04-16T05:54:54.980Z,6.55
2023-04-16T05:57:22.983Z,6.58
2023-04-16T05:59:49.592Z,6.57
2023-04-16T06:02:16.282Z,6.59
2023-04-16T06:04:43.050Z,6.59
2023-04-16T06:07:09.766Z,6.57
2023-04-16T06:09:36.366Z,6.55
2023-04-16T06:12:03.353Z,6.53
2023-04-16T06:14:31.310Z,6.51
2023-04-16T06:16:57.931Z,6.57
2023-04-16T06:19:24.588Z,6.56
2023-04-16T06:21:51.173Z,6.55
2023-04-16T06:24:17.716Z,6.54
2023-04-16T06:26:44.374Z,6.52
2023-04-16T06:29:11.468Z,6.54
2023-04-16T06:31:39.519Z,6.55
2023-04-16T06:34:06.056Z,6.57
2023-04-16T06:36:32.585Z,6.56
2023-04-16T06:38:59.177Z,6.57
2023-04-16T06:41:25.755Z,6.57
2023-04-16T06:43:52.433Z,6.58
2023-04-16T06:46:18.961Z,6.59
2023-04-16T06:48:47.000Z,6.57
2023-04-16T06:51:13.606Z,6.59
2023-04-16T06:53:40.284Z,6.59
2023-04-16T06:56:07.416Z,6.59
2023-04-16T06:58:33.966Z,6.59
2023-04-16T07:01:00.650Z,6.60
2023-04-16T07:03:27.380Z,6.58
2023-04-16T07:05:55.716Z,6.60
2023-04-16T07:08:22.245Z,6.63
2023-04-16T07:10:48.768Z,6.61
2023-04-16T07:13:15.347Z,6.62
2023-04-16T07:15:41.861Z,6.58
2023-04-16T07:18:08.570Z,6.56
2023-04-16T07:20:35.168Z,6.58
2023-04-16T07:23:03.176Z,6.55
2023-04-16T07:25:29.684Z,6.56
2023-04-16T07:27:56.436Z,6.55
2023-04-16T07:30:23.029Z,6.57
2023-04-16T07:32:50.965Z,6.55
2023-04-16T07:35:17.644Z,6.57
2023-04-16T07:37:44.156Z,6.55
2023-04-16T07:40:12.580Z,6.56
2023-04-16T07:42:39.174Z,6.55
2023-04-16T07:45:06.813Z,6.55
2023-04-16T07:47:33.419Z,6.56
2023-04-16T07:49:59.950Z,6.57
2023-04-16T07:52:26.580Z,6.55
2023-04-16T07:54:53.309Z,6.55
2023-04-16T07:57:21.259Z,6.59
2023-04-16T07:59:47.797Z,6.57
2023-04-16T08:02:16.161Z,6.55
2023-04-16T08:04:43.964Z,6.54
2023-04-16T08:07:10.679Z,6.54
2023-04-16T08:09:47.480Z,6.54
2023-04-16T08:12:14.030Z,6.50
2023-04-16T08:14:42.061Z,6.51
2023-04-16T08:17:08.549Z,6.49
2023-04-16T08:19:35.078Z,6.52
2023-04-16T08:22:01.683Z,6.53
2023-04-16T08:24:28.238Z,6.51
2023-04-16T08:26:56.995Z,6.48
2023-04-16T08:29:26.903Z,6.55
2023-04-16T08:31:56.266Z,6.54
2023-04-16T08:34:22.936Z,6.57
2023-04-16T08:36:49.616Z,6.56
2023-04-16T08:39:16.214Z,6.51
2023-04-16T08:41:45.575Z,6.53
2023-04-16T08:44:19.491Z,6.53
2023-04-16T08:46:46.806Z,6.53
2023-04-16T08:49:17.283Z,6.52
2023-04-16T08:51:49.579Z,6.48
2023-04-16T08:54:31.819Z,6.51
2023-04-16T08:56:59.111Z,6.50
2023-04-16T08:59:26.417Z,6.50
2023-04-16T09:01:56.551Z,6.47
2023-04-16T09:04:26.649Z,6.49
2023-04-16T09:06:55.056Z,6.47
2023-04-16T09:09:22.071Z,6.44
2023-04-16T09:11:51.291Z,6.43
2023-04-16T09:14:18.014Z,6.48
2023-04-16T09:16:45.638Z,6.42
2023-04-16T09:19:12.464Z,6.47
2023-04-16T09:21:41.569Z,6.51
2023-04-16T09:24:08.596Z,6.54
2023-04-16T09:26:35.494Z,6.58
2023-04-16T09:29:02.267Z,6.57
2023-04-16T09:31:28.921Z,6.59
2023-04-16T09:34:03.007Z,6.56
2023-04-16T09:36:30.052Z,6.57
2023-04-16T09:38:58.885Z,6.58
2023-04-16T09:41:26.908Z,6.53
2023-04-16T09:43:57.174Z,6.46
2023-04-16T09:46:24.848Z,6.48
2023-04-16T09:48:51.654Z,6.50
2023-04-16T09:51:18.274Z,6.49
2023-04-16T09:53:44.858Z,6.46
2023-04-16T09:56:13.198Z,6.52
2023-04-16T09:58:39.745Z,6.46
2023-04-16T10:01:08.785Z,6.51
2023-04-16T10:03:37.262Z,6.47
2023-04-16T10:06:15.397Z,6.43
2023-04-16T10:08:43.868Z,6.46
2023-04-16T10:11:12.113Z,6.49
2023-04-16T10:13:38.816Z,6.45
2023-04-16T10:16:07.001Z,6.55
2023-04-16T10:18:35.114Z,6.55
2023-04-16T10:21:02.449Z,6.55
2023-04-16T10:23:29.666Z,6.62
2023-04-16T10:25:59.001Z,6.65
2023-04-16T10:28:27.434Z,6.71
2023-04-16T10:30:56.119Z,6.66
2023-04-16T10:33:25.805Z,6.78
2023-04-16T10:36:04.979Z,6.76
2023-04-16T10:38:33.756Z,6.72
2023-04-16T10:41:02.460Z,6.77
2023-04-16T10:43:30.662Z,6.88
2023-04-16T10:45:57.275Z,6.99
2023-04-16T10:48:24.350Z,6.95
2023-04-16T10:50:55.424Z,7.16
2023-04-16T10:53:24.172Z,7.34
2023-04-16T10:56:12.380Z,7.51
2023-04-16T10:58:40.505Z,7.61
2023-04-16T11:01:07.908Z,7.66
2023-04-16T11:03:34.709Z,7.54
2023-04-16T11:06:11.969Z,7.59
2023-04-16T11:08:51.053Z,7.61
2023-04-16T11:11:20.946Z,7.66
2023-04-16T11:13:49.044Z,7.75
2023-04-16T11:16:16.779Z,7.75
2023-04-16T11:18:51.704Z,7.77
2023-04-16T11:21:19.526Z,7.78
2023-04-16T11:23:51.293Z,7.84
2023-04-16T11:26:25.294Z,7.92
2023-04-16T11:28:56.410Z,7.93
2023-04-16T11:31:23.685Z,7.87
2023-04-16T11:33:50.514Z,7.86
2023-04-16T11:36:17.270Z,7.78
2023-04-16T11:38:44.152Z,7.80
2023-04-16T11:41:11.379Z,7.90
2023-04-16T11:43:37.922Z,7.96
2023-04-16T11:46:16.571Z,7.90
2023-04-16T11:48:52.531Z,7.87
2023-04-16T11:51:19.457Z,7.89
2023-04-16T11:53:53.260Z,8.02
2023-04-16T11:56:27.016Z,8.01
2023-04-16T11:59:09.048Z,8.18
2023-04-16T12:01:37.954Z,8.29
2023-04-16T12:04:04.968Z,8.31
2023-04-16T12:06:31.966Z,8.41
2023-04-16T12:08:58.567Z,8.42
2023-04-16T12:11:38.125Z,8.43
2023-04-16T12:14:08.246Z,8.48
2023-04-16T12:16:35.895Z,8.72
2023-04-16T12:19:05.474Z,8.85
2023-04-16T12:21:42.085Z,8.71
2023-04-16T12:24:10.228Z,8.63
2023-04-16T12:26:41.215Z,8.55
2023-04-16T12:29:19.614Z,8.51
2023-04-16T12:31:46.543Z,8.60
2023-04-16T12:34:14.796Z,8.54
2023-04-16T12:36:42.017Z,8.39
2023-04-16T12:39:08.912Z,8.41
2023-04-16T12:41:37.800Z,8.53
2023-04-16T12:44:06.157Z,8.52
2023-04-16T12:46:32.820Z,8.60
2023-04-16T12:48:59.360Z,8.63
2023-04-16T12:51:27.558Z,8.73
2023-04-16T12:53:55.335Z,8.65
2023-04-16T12:56:21.952Z,8.64
2023-04-16T12:58:48.516Z,8.59
2023-04-16T13:01:15.108Z,8.61
2023-04-16T13:03:41.936Z,8.52
2023-04-16T13:06:08.575Z,8.62
2023-04-16T13:08:36.887Z,8.59
2023-04-16T13:11:03.475Z,8.63
2023-04-16T13:13:29.996Z,8.74
2023-04-16T13:15:56.722Z,8.65
2023-04-16T13:18:24.962Z,8.60
2023-04-16T13:20:51.504Z,8.74
2023-04-16T13:23:18.052Z,8.85
2023-04-16T13:25:45.937Z,8.75
2023-04-16T13:28:12.762Z,8.85
2023-04-16T13:30:39.373Z,8.89
2023-04-16T13:33:06.142Z,8.93
2023-04-16T13:35:32.734Z,8.93
2023-04-16T13:37:59.301Z,8.95
2023-04-16T13:40:26.001Z,9.03
2023-04-16T13:42:53.902Z,9.05
2023-04-16T13:45:20.462Z,9.06
2023-04-16T13:47:47.045Z,9.03
2023-04-16T13:50:13.602Z,9.03
2023-04-16T13:52:40.191Z,8.99
2023-04-16T13:55:07.248Z,9.05
2023-04-16T13:57:33.767Z,9.01
2023-04-16T14:00:02.621Z,8.97
2023-04-16T14:02:29.319Z,8.93
2023-04-16T14:04:55.911Z,8.89
2023-04-16T14:07:22.505Z,8.82
2023-04-16T14:09:49.073Z,8.73
2023-04-16T14:12:15.729Z,8.73
2023-04-16T14:14:42.257Z,8.72
2023-04-16T14:17:10.286Z,8.65
2023-04-16T14:19:37.007Z,8.63
2023-04-16T14:22:03.588Z,8.63
2023-04-16T14:24:30.257Z,8.58
2023-04-16T14:26:56.819Z,8.51
2023-04-16T14:29:23.405Z,8.49
2023-04-16T14:31:49.978Z,8.56
2023-04-16T14:34:17.947Z,8.50
2023-04-16T14:36:44.554Z,8.50
2023-04-16T14:39:11.391Z,8.46
2023-04-16T14:41:38.090Z,8.43
2023-04-16T14:44:05.024Z,8.41
2023-04-16T14:46:31.652Z,8.42
2023-04-16T14:48:58.228Z,8.44
2023-04-16T14:51:26.465Z,8.30
2023-04-16T14:53:53.034Z,8.28
2023-04-16T14:56:38.051Z,8.27
2023-04-16T14:59:04.577Z,8.30
2023-04-16T15:01:31.325Z,8.24
2023-04-16T15:03:59.239Z,8.16
2023-04-16T15:06:28.687Z,8.14
2023-04-16T15:08:55.358Z,8.13
2023-04-16T15:11:21.886Z,8.09
2023-04-16T15:13:48.429Z,8.09
2023-04-16T15:16:15.046Z,8.06
2023-04-16T15:18:41.687Z,7.99
2023-04-16T15:21:09.496Z,7.94
2023-04-16T15:23:38.474Z,7.90
2023-04-16T15:26:05.031Z,7.88
2023-04-16T15:28:31.579Z,7.82
2023-04-16T15:30:58.344Z,7.81
2023-04-16T15:33:25.015Z,7.81
2023-04-16T15:35:51.705Z,7.69
2023-04-16T15:38:18.812Z,7.63
2023-04-16T15:40:46.749Z,7.59
2023-04-16T15:43:15.369Z,7.56
2023-04-16T15:45:41.936Z,7.52
2023-04-16T15:48:08.525Z,7.47
2023-04-16T15:50:35.251Z,7.44
2023-04-16T15:53:01.806Z,7.40
2023-04-16T15:55:28.532Z,7.32
2023-04-16T15:57:56.636Z,7.27
2023-04-16T16:00:23.153Z,7.21
2023-04-16T16:02:49.805Z,7.20
2023-04-16T16:05:16.640Z,7.20
2023-04-16T16:07:43.441Z,7.17
2023-04-16T16:10:10.824Z,7.14
2023-04-16T16:12:37.413Z,7.10
2023-04-16T16:15:06.672Z,7.10
2023-04-16T16:17:33.552Z,7.08
2023-04-16T16:20:00.205Z,7.13
2023-04-16T16:22:26.780Z,7.08
2023-04-16T16:24:56.227Z,7.08
2023-04-16T16:27:22.902Z,7.04
2023-04-16T16:29:49.544Z,7.09
2023-04-16T16:32:17.406Z,7.08
2023-04-16T16:34:44.005Z,7.04
2023-04-16T16:37:10.731Z,7.07
2023-04-16T16:39:38.687Z,7.03
2023-04-16T16:42:05.648Z,7.03
2023-04-16T16:44:32.403Z,7.01
2023-04-16T16:46:59.059Z,7.01
2023-04-16T16:49:27.012Z,6.99
2023-04-16T16:51:53.563Z,6.97
2023-04-16T16:54:20.095Z,6.95
2023-04-16T16:56:46.624Z,6.94
2023-04-16T16:59:13.519Z,6.90
2023-04-16T17:01:40.223Z,6.90
2023-04-16T17:04:07.155Z,6.91
2023-04-16T17:06:35.121Z,6.90
2023-04-16T17:09:01.968Z,6.87
2023-04-16T17:11:28.608Z,6.83
2023-04-16T17:13:55.213Z,6.81
2023-04-16T17:16:21.758Z,6.76
2023-04-16T17:18:48.293Z,6.80
2023-04-16T17:21:16.566Z,6.74
2023-04-16T17:23:44.851Z,6.75
2023-04-16T17:26:11.408Z,6.75
2023-04-16T17:28:38.167Z,6.76
2023-04-16T17:31:06.664Z,6.72
2023-04-16T17:33:33.195Z,6.73
2023-04-16T17:35:59.812Z,6.69
2023-04-16T17:38:26.425Z,6.68
2023-04-16T17:40:54.295Z,6.69
2023-04-16T17:43:20.875Z,6.65
2023-04-16T17:45:47.429Z,6.68
2023-04-16T17:48:14.069Z,6.68
2023-04-16T17:50:40.652Z,6.67
2023-04-16T17:53:07.368Z,6.65
2023-04-16T17:55:34.031Z,6.63
2023-04-16T17:58:01.988Z,6.62
2023-04-16T18:00:28.565Z,6.64
2023-04-16T18:02:55.433Z,6.64
2023-04-16T18:05:22.476Z,6.59
2023-04-16T18:07:48.997Z,6.58
2023-04-16T18:10:15.570Z,6.56
2023-04-16T18:12:42.118Z,6.55
2023-04-16T18:15:10.940Z,6.55
2023-04-16T18:17:37.750Z,6.52
2023-04-16T18:20:05.076Z,6.55
2023-04-16T18:22:31.634Z,6.53
2023-04-16T18:24:58.295Z,6.50
2023-04-16T18:27:25.066Z,6.53
2023-04-16T18:29:54.737Z,6.49
2023-04-16T18:32:23.390Z,6.46
2023-04-16T18:34:50.259Z,6.46
2023-04-16T18:37:16.807Z,6.45
2023-04-16T18:39:44.460Z,6.46
2023-04-16T18:42:10.984Z,6.47
2023-04-16T18:44:37.550Z,6.47
2023-04-16T18:47:04.268Z,6.50
2023-04-16T18:49:32.260Z,6.49
2023-04-16T18:51:58.798Z,6.48
2023-04-16T18:54:25.552Z,6.49
2023-04-16T18:56:52.070Z,6.47
2023-04-16T18:59:18.675Z,6.45
2023-04-16T19:01:45.269Z,6.46
2023-04-16T19:04:11.878Z,6.45
2023-04-16T19:06:39.918Z,6.44
2023-04-16T19:09:06.419Z,6.41
2023-04-16T19:11:33.215Z,6.40
2023-04-16T19:13:59.953Z,6.38
2023-04-16T19:16:26.678Z,6.42
2023-04-16T19:18:53.249Z,6.38
2023-04-16T19:21:19.953Z,6.38
2023-04-16T19:23:47.901Z,6.40
2023-04-16T19:26:14.525Z,6.38
2023-04-16T19:28:41.091Z,6.35
2023-04-16T19:31:08.197Z,6.32
2023-04-16T19:33:35.144Z,6.32
2023-04-16T19:36:01.906Z,6.31
2023-04-16T19:38:28.690Z,6.31
2023-04-16T19:40:56.616Z,6.29
2023-04-16T19:43:23.272Z,6.29
2023-04-16T19:45:50.150Z,6.26
2023-04-16T19:48:16.781Z,6.27
2023-04-16T19:50:43.629Z,6.26
2023-04-16T19:53:10.992Z,6.29
2023-04-16T19:55:39.203Z,6.28
2023-04-16T19:58:07.390Z,6.29
2023-04-16T20:00:35.758Z,6.32
2023-04-16T20:03:03.086Z,6.34
2023-04-16T20:05:29.904Z,6.33
2023-04-16T20:07:56.973Z,6.34
2023-04-16T20:10:24.083Z,6.37
2023-04-16T20:12:51.094Z,6.32
2023-04-16T20:15:19.414Z,6.32
2023-04-16T20:17:46.311Z,6.31
2023-04-16T20:20:12.928Z,6.28
2023-04-16T20:22:40.262Z,6.29
2023-04-16T20:25:08.047Z,6.29
2023-04-16T20:27:35.986Z,6.25
2023-04-16T20:30:03.111Z,6.25
2023-04-16T20:32:31.064Z,6.25
2023-04-16T20:34:57.703Z,6.24
2023-04-16T20:37:24.301Z,6.26
2023-04-16T20:39:50.990Z,6.24
2023-04-16T20:42:17.531Z,6.24
2023-04-16T20:44:44.111Z,6.22
2023-04-16T20:47:11.535Z,6.24
2023-04-16T20:49:39.454Z,6.23
2023-04-16T20:52:06.226Z,6.22
2023-04-16T20:54:32.815Z,6.22
2023-04-16T20:56:59.435Z,6.21
2023-04-16T20:59:26.049Z,6.24
2023-04-16T21:01:52.731Z,6.24
2023-04-16T21:04:19.522Z,6.25
2023-04-16T21:06:47.686Z,6.25
2023-04-16T21:09:14.526Z,6.25
2023-04-16T21:11:41.230Z,6.26
2023-04-16T21:14:07.943Z,6.25
2023-04-16T21:16:34.590Z,6.25
2023-04-16T21:19:01.129Z,6.23
2023-04-16T21:21:27.857Z,6.22
2023-04-16T21:23:55.926Z,6.22
2023-04-16T21:26:22.559Z,6.24
2023-04-16T21:28:49.099Z,6.25
2023-04-16T21:31:15.862Z,6.26
2023-04-16T21:33:42.613Z,6.26
2023-04-16T21:36:09.211Z,6.26
2023-04-16T21:38:35.986Z,6.27
2023-04-16T21:41:04.080Z,6.27
2023-04-16T21:43:30.667Z,6.29
2023-04-16T21:45:57.654Z,6.29
2023-04-16T21:48:24.615Z,6.29
2023-04-16T21:50:55.094Z,6.30
2023-04-16T21:53:21.682Z,6.30
2023-04-16T21:55:49.417Z,6.30
2023-04-16T21:58:17.286Z,6.29
2023-04-16T22:00:43.901Z,6.31
2023-04-16T22:03:10.642Z,6.30
2023-04-16T22:05:37.305Z,6.30
2023-04-16T22:08:17.086Z,6.30
2023-04-16T22:10:50.277Z,6.33
2023-04-16T22:13:18.237Z,6.33
2023-04-16T22:15:44.838Z,6.34
2023-04-16T22:18:11.597Z,6.34
2023-04-16T22:20:38.973Z,6.33
2023-04-16T22:23:06.060Z,6.34
2023-04-16T22:25:32.781Z,6.33
2023-04-16T22:27:59.581Z,6.33
2023-04-16T22:30:27.477Z,6.33
2023-04-16T22:32:54.102Z,6.34
2023-04-16T22:35:20.655Z,6.33
2023-04-16T22:37:47.368Z,6.33
2023-04-16T22:40:13.910Z,6.32
2023-04-16T22:42:40.442Z,6.33
2023-04-16T22:45:07.562Z,6.33
2023-04-16T22:47:35.621Z,6.35
2023-04-16T22:50:02.347Z,6.34
2023-04-16T22:52:28.943Z,6.34
2023-04-16T22:54:55.488Z,6.34
2023-04-16T22:57:22.037Z,6.34
2023-04-16T22:59:48.584Z,6.36
2023-04-16T23:02:15.203Z,6.37
2023-04-16T23:04:43.141Z,6.37
2023-04-16T23:07:09.673Z,6.36
2023-04-16T23:09:36.205Z,6.35
2023-04-16T23:12:02.959Z,6.36
2023-04-16T23:14:29.609Z,6.36
2023-04-16T23:16:56.127Z,6.35
2023-04-16T23:19:22.830Z,6.35
2023-04-16T23:21:50.701Z,6.34
2023-04-16T23:24:17.308Z,6.34
2023-04-16T23:26:43.802Z,6.33
2023-04-16T23:29:10.613Z,6.33
2023-04-16T23:31:37.485Z,6.34
2023-04-16T23:34:04.131Z,6.33
2023-04-16T23:36:30.646Z,6.34
2023-04-16T23:38:58.705Z,6.34
2023-04-16T23:41:25.213Z,6.33
2023-04-16T23:43:51.846Z,6.33
2023-04-16T23:46:18.481Z,6.32
2023-04-16T23:48:45.098Z,6.31
2023-04-16T23:51:11.716Z,6.29
2023-04-16T23:53:38.512Z,6.28
2023-04-16T23:56:09.280Z,6.29
2023-04-16T23:58:35.896Z,6.28
